sensor_id;sensor_type;location;lat;lon;timestamp;P1;durP1;ratioP1;P2;durP2;ratioP2
11827;SDS011;5971;49.646;8.568;2023-07-30T00:01:52;7.90;;;4.55;;
11827;SDS011;5971;49.646;8.568;2023-07-30T00:04:53;7.13;;;4.35;;
11827;SDS011;5971;49.646;8.568;2023-07-30T00:07:55;9.50;;;4.80;;
11827;SDS011;5971;49.646;8.568;2023-07-30T00:10:57;8.15;;;4.25;;
11827;SDS011;5971;49.646;8.568;2023-07-30T00:13:59;8.80;;;4.28;;
11827;SDS011;5971;49.646;8.568;2023-07-30T00:17:00;9.70;;;4.43;;
11827;SDS011;5971;49.646;8.568;2023-07-30T00:20:02;8.05;;;4.05;;
11827;SDS011;5971;49.646;8.568;2023-07-30T00:23:03;8.10;;;4.45;;
11827;SDS011;5971;49.646;8.568;2023-07-30T00:26:05;7.60;;;4.03;;
11827;SDS011;5971;49.646;8.568;2023-07-30T00:29:06;7.43;;;4.57;;
11827;SDS011;5971;49.646;8.568;2023-07-30T00:32:07;7.40;;;4.30;;
11827;SDS011;5971;49.646;8.568;2023-07-30T00:35:09;8.10;;;3.90;;
11827;SDS011;5971;49.646;8.568;2023-07-30T00:38:11;8.20;;;4.10;;
11827;SDS011;5971;49.646;8.568;2023-07-30T00:41:12;7.85;;;3.78;;
11827;SDS011;5971;49.646;8.568;2023-07-30T00:44:13;7.57;;;4.40;;
11827;SDS011;5971;49.646;8.568;2023-07-30T00:47:15;6.95;;;4.00;;
11827;SDS011;5971;49.646;8.568;2023-07-30T00:50:16;8.68;;;4.13;;
11827;SDS011;5971;49.646;8.568;2023-07-30T00:53:18;8.35;;;4.32;;
11827;SDS011;5971;49.646;8.568;2023-07-30T00:56:20;6.93;;;3.90;;
11827;SDS011;5971;49.646;8.568;2023-07-30T00:59:21;7.63;;;3.85;;
11827;SDS011;5971;49.646;8.568;2023-07-30T01:02:24;6.50;;;3.33;;
11827;SDS011;5971;49.646;8.568;2023-07-30T01:05:26;6.47;;;3.40;;
11827;SDS011;5971;49.646;8.568;2023-07-30T01:08:27;9.07;;;3.70;;
11827;SDS011;5971;49.646;8.568;2023-07-30T01:11:29;6.53;;;3.20;;
11827;SDS011;5971;49.646;8.568;2023-07-30T01:14:30;5.97;;;3.20;;
11827;SDS011;5971;49.646;8.568;2023-07-30T01:17:32;5.18;;;3.10;;
11827;SDS011;5971;49.646;8.568;2023-07-30T01:20:33;6.05;;;3.00;;
11827;SDS011;5971;49.646;8.568;2023-07-30T01:23:35;5.00;;;2.85;;
11827;SDS011;5971;49.646;8.568;2023-07-30T01:26:46;6.22;;;3.00;;
11827;SDS011;5971;49.646;8.568;2023-07-30T01:29:51;4.35;;;2.60;;
11827;SDS011;5971;49.646;8.568;2023-07-30T01:32:55;5.25;;;2.60;;
11827;SDS011;5971;49.646;8.568;2023-07-30T01:35:57;5.93;;;2.53;;
11827;SDS011;5971;49.646;8.568;2023-07-30T01:38:59;6.25;;;2.40;;
11827;SDS011;5971;49.646;8.568;2023-07-30T01:42:00;3.50;;;2.05;;
11827;SDS011;5971;49.646;8.568;2023-07-30T01:45:03;4.88;;;2.08;;
11827;SDS011;5971;49.646;8.568;2023-07-30T01:48:04;4.97;;;2.30;;
11827;SDS011;5971;49.646;8.568;2023-07-30T01:51:05;4.32;;;2.25;;
11827;SDS011;5971;49.646;8.568;2023-07-30T01:54:07;4.22;;;2.40;;
11827;SDS011;5971;49.646;8.568;2023-07-30T01:57:08;3.97;;;2.10;;
11827;SDS011;5971;49.646;8.568;2023-07-30T02:00:10;5.47;;;2.25;;
11827;SDS011;5971;49.646;8.568;2023-07-30T02:03:12;4.93;;;1.88;;
11827;SDS011;5971;49.646;8.568;2023-07-30T02:06:13;5.68;;;2.25;;
11827;SDS011;5971;49.646;8.568;2023-07-30T02:09:14;4.93;;;2.25;;
11827;SDS011;5971;49.646;8.568;2023-07-30T02:12:16;4.30;;;2.22;;
11827;SDS011;5971;49.646;8.568;2023-07-30T02:15:17;5.05;;;2.22;;
11827;SDS011;5971;49.646;8.568;2023-07-30T02:18:19;5.70;;;2.33;;
11827;SDS011;5971;49.646;8.568;2023-07-30T02:21:20;4.15;;;2.30;;
11827;SDS011;5971;49.646;8.568;2023-07-30T02:24:21;4.40;;;2.38;;
11827;SDS011;5971;49.646;8.568;2023-07-30T02:27:23;4.55;;;2.42;;
11827;SDS011;5971;49.646;8.568;2023-07-30T02:30:24;5.28;;;2.63;;
11827;SDS011;5971;49.646;8.568;2023-07-30T02:33:25;3.97;;;2.35;;
11827;SDS011;5971;49.646;8.568;2023-07-30T02:36:27;5.53;;;2.60;;
11827;SDS011;5971;49.646;8.568;2023-07-30T02:39:28;5.10;;;2.33;;
11827;SDS011;5971;49.646;8.568;2023-07-30T02:42:30;5.55;;;2.40;;
11827;SDS011;5971;49.646;8.568;2023-07-30T02:45:31;6.43;;;3.28;;
11827;SDS011;5971;49.646;8.568;2023-07-30T02:48:33;4.53;;;2.83;;
11827;SDS011;5971;49.646;8.568;2023-07-30T02:51:34;5.25;;;2.45;;
11827;SDS011;5971;49.646;8.568;2023-07-30T02:54:36;5.03;;;2.63;;
11827;SDS011;5971;49.646;8.568;2023-07-30T02:57:37;5.72;;;2.70;;
11827;SDS011;5971;49.646;8.568;2023-07-30T03:00:38;5.82;;;2.90;;
11827;SDS011;5971;49.646;8.568;2023-07-30T03:03:40;5.90;;;2.58;;
11827;SDS011;5971;49.646;8.568;2023-07-30T03:06:41;6.30;;;3.08;;
11827;SDS011;5971;49.646;8.568;2023-07-30T03:09:42;5.53;;;2.72;;
11827;SDS011;5971;49.646;8.568;2023-07-30T03:12:44;6.18;;;2.85;;
11827;SDS011;5971;49.646;8.568;2023-07-30T03:15:45;6.53;;;3.03;;
11827;SDS011;5971;49.646;8.568;2023-07-30T03:18:47;6.57;;;3.15;;
11827;SDS011;5971;49.646;8.568;2023-07-30T03:21:49;6.47;;;3.10;;
11827;SDS011;5971;49.646;8.568;2023-07-30T03:24:50;5.90;;;3.47;;
11827;SDS011;5971;49.646;8.568;2023-07-30T03:27:51;7.13;;;3.08;;
11827;SDS011;5971;49.646;8.568;2023-07-30T03:30:53;6.18;;;3.63;;
11827;SDS011;5971;49.646;8.568;2023-07-30T03:33:54;5.68;;;3.35;;
11827;SDS011;5971;49.646;8.568;2023-07-30T03:36:56;6.97;;;3.20;;
11827;SDS011;5971;49.646;8.568;2023-07-30T03:40:01;6.95;;;3.42;;
11827;SDS011;5971;49.646;8.568;2023-07-30T03:43:02;7.60;;;4.18;;
11827;SDS011;5971;49.646;8.568;2023-07-30T03:46:03;7.65;;;3.90;;
11827;SDS011;5971;49.646;8.568;2023-07-30T03:49:05;6.68;;;3.40;;
11827;SDS011;5971;49.646;8.568;2023-07-30T03:52:06;8.65;;;3.53;;
11827;SDS011;5971;49.646;8.568;2023-07-30T03:55:08;7.68;;;3.78;;
11827;SDS011;5971;49.646;8.568;2023-07-30T03:58:09;6.68;;;3.65;;
11827;SDS011;5971;49.646;8.568;2023-07-30T04:01:10;8.52;;;3.33;;
11827;SDS011;5971;49.646;8.568;2023-07-30T04:04:12;7.20;;;3.75;;
11827;SDS011;5971;49.646;8.568;2023-07-30T04:07:13;9.50;;;3.70;;
11827;SDS011;5971;49.646;8.568;2023-07-30T04:10:15;6.93;;;3.33;;
11827;SDS011;5971;49.646;8.568;2023-07-30T04:13:16;7.22;;;3.50;;
11827;SDS011;5971;49.646;8.568;2023-07-30T04:16:17;6.25;;;2.92;;
11827;SDS011;5971;49.646;8.568;2023-07-30T04:19:19;6.45;;;3.80;;
11827;SDS011;5971;49.646;8.568;2023-07-30T04:22:20;6.80;;;3.22;;
11827;SDS011;5971;49.646;8.568;2023-07-30T04:25:21;7.05;;;3.75;;
11827;SDS011;5971;49.646;8.568;2023-07-30T04:28:23;6.53;;;3.22;;
11827;SDS011;5971;49.646;8.568;2023-07-30T04:31:24;7.63;;;3.20;;
11827;SDS011;5971;49.646;8.568;2023-07-30T04:34:26;6.65;;;3.65;;
11827;SDS011;5971;49.646;8.568;2023-07-30T04:37:27;7.55;;;3.42;;
11827;SDS011;5971;49.646;8.568;2023-07-30T04:40:29;8.63;;;3.63;;
11827;SDS011;5971;49.646;8.568;2023-07-30T04:43:30;7.70;;;3.63;;
11827;SDS011;5971;49.646;8.568;2023-07-30T04:46:31;7.72;;;3.95;;
11827;SDS011;5971;49.646;8.568;2023-07-30T04:49:34;6.90;;;3.58;;
11827;SDS011;5971;49.646;8.568;2023-07-30T04:52:38;7.07;;;3.80;;
11827;SDS011;5971;49.646;8.568;2023-07-30T04:55:39;7.05;;;3.47;;
11827;SDS011;5971;49.646;8.568;2023-07-30T04:58:40;8.23;;;4.13;;
11827;SDS011;5971;49.646;8.568;2023-07-30T05:01:42;8.05;;;4.05;;
11827;SDS011;5971;49.646;8.568;2023-07-30T05:04:43;10.27;;;4.55;;
11827;SDS011;5971;49.646;8.568;2023-07-30T05:07:44;8.93;;;5.18;;
11827;SDS011;5971;49.646;8.568;2023-07-30T05:10:46;9.05;;;5.65;;
11827;SDS011;5971;49.646;8.568;2023-07-30T05:13:47;7.95;;;4.97;;
11827;SDS011;5971;49.646;8.568;2023-07-30T05:16:48;10.40;;;5.25;;
11827;SDS011;5971;49.646;8.568;2023-07-30T05:19:50;10.02;;;5.32;;
11827;SDS011;5971;49.646;8.568;2023-07-30T05:22:51;9.55;;;5.15;;
11827;SDS011;5971;49.646;8.568;2023-07-30T05:25:52;11.48;;;5.30;;
11827;SDS011;5971;49.646;8.568;2023-07-30T05:28:54;9.80;;;5.35;;
11827;SDS011;5971;49.646;8.568;2023-07-30T05:31:55;11.05;;;5.75;;
11827;SDS011;5971;49.646;8.568;2023-07-30T05:34:57;11.75;;;5.63;;
11827;SDS011;5971;49.646;8.568;2023-07-30T05:37:58;10.23;;;5.75;;
11827;SDS011;5971;49.646;8.568;2023-07-30T05:40:59;9.52;;;6.43;;
11827;SDS011;5971;49.646;8.568;2023-07-30T05:44:01;9.27;;;5.80;;
11827;SDS011;5971;49.646;8.568;2023-07-30T05:47:02;9.75;;;5.45;;
11827;SDS011;5971;49.646;8.568;2023-07-30T05:50:04;9.80;;;5.35;;
11827;SDS011;5971;49.646;8.568;2023-07-30T05:53:05;8.02;;;5.15;;
11827;SDS011;5971;49.646;8.568;2023-07-30T05:56:07;8.55;;;4.63;;
11827;SDS011;5971;49.646;8.568;2023-07-30T05:59:10;8.20;;;4.90;;
11827;SDS011;5971;49.646;8.568;2023-07-30T06:02:11;8.20;;;5.05;;
11827;SDS011;5971;49.646;8.568;2023-07-30T06:05:12;9.02;;;4.93;;
11827;SDS011;5971;49.646;8.568;2023-07-30T06:08:14;9.18;;;5.05;;
11827;SDS011;5971;49.646;8.568;2023-07-30T06:11:15;7.50;;;4.50;;
11827;SDS011;5971;49.646;8.568;2023-07-30T06:14:19;7.45;;;4.85;;
11827;SDS011;5971;49.646;8.568;2023-07-30T06:17:21;8.52;;;4.07;;
11827;SDS011;5971;49.646;8.568;2023-07-30T06:20:24;6.43;;;4.45;;
11827;SDS011;5971;49.646;8.568;2023-07-30T06:23:26;6.07;;;4.10;;
11827;SDS011;5971;49.646;8.568;2023-07-30T06:26:30;4.97;;;3.55;;
11827;SDS011;5971;49.646;8.568;2023-07-30T06:29:32;7.57;;;3.95;;
11827;SDS011;5971;49.646;8.568;2023-07-30T06:32:33;4.80;;;3.13;;
11827;SDS011;5971;49.646;8.568;2023-07-30T06:35:34;5.43;;;3.20;;
11827;SDS011;5971;49.646;8.568;2023-07-30T06:38:36;6.72;;;2.75;;
11827;SDS011;5971;49.646;8.568;2023-07-30T06:41:38;4.32;;;2.75;;
11827;SDS011;5971;49.646;8.568;2023-07-30T06:44:40;5.40;;;2.72;;
11827;SDS011;5971;49.646;8.568;2023-07-30T06:47:42;4.78;;;2.85;;
11827;SDS011;5971;49.646;8.568;2023-07-30T06:50:43;4.20;;;2.80;;
11827;SDS011;5971;49.646;8.568;2023-07-30T06:53:44;5.45;;;2.97;;
11827;SDS011;5971;49.646;8.568;2023-07-30T06:56:46;3.80;;;2.50;;
11827;SDS011;5971;49.646;8.568;2023-07-30T06:59:47;4.82;;;3.00;;
11827;SDS011;5971;49.646;8.568;2023-07-30T07:02:48;4.38;;;2.85;;
11827;SDS011;5971;49.646;8.568;2023-07-30T07:05:53;4.78;;;2.75;;
11827;SDS011;5971;49.646;8.568;2023-07-30T07:08:56;4.72;;;2.65;;
11827;SDS011;5971;49.646;8.568;2023-07-30T07:11:58;4.07;;;2.63;;
11827;SDS011;5971;49.646;8.568;2023-07-30T07:14:59;4.13;;;2.72;;
11827;SDS011;5971;49.646;8.568;2023-07-30T07:18:02;3.75;;;2.55;;
11827;SDS011;5971;49.646;8.568;2023-07-30T07:21:04;4.03;;;2.50;;
11827;SDS011;5971;49.646;8.568;2023-07-30T07:24:05;4.47;;;2.38;;
11827;SDS011;5971;49.646;8.568;2023-07-30T07:27:06;4.20;;;2.35;;
11827;SDS011;5971;49.646;8.568;2023-07-30T07:30:08;4.03;;;2.60;;
11827;SDS011;5971;49.646;8.568;2023-07-30T07:33:10;4.28;;;2.28;;
11827;SDS011;5971;49.646;8.568;2023-07-30T07:36:13;3.95;;;2.70;;
11827;SDS011;5971;49.646;8.568;2023-07-30T07:39:15;3.90;;;2.65;;
11827;SDS011;5971;49.646;8.568;2023-07-30T07:42:16;3.65;;;2.42;;
11827;SDS011;5971;49.646;8.568;2023-07-30T07:45:18;4.28;;;2.53;;
11827;SDS011;5971;49.646;8.568;2023-07-30T07:48:20;3.70;;;2.50;;
11827;SDS011;5971;49.646;8.568;2023-07-30T07:51:21;4.70;;;2.88;;
11827;SDS011;5971;49.646;8.568;2023-07-30T07:54:23;5.13;;;2.55;;
11827;SDS011;5971;49.646;8.568;2023-07-30T07:57:24;4.28;;;2.05;;
11827;SDS011;5971;49.646;8.568;2023-07-30T08:00:25;3.75;;;2.35;;
11827;SDS011;5971;49.646;8.568;2023-07-30T08:03:27;3.15;;;1.92;;
11827;SDS011;5971;49.646;8.568;2023-07-30T08:06:29;3.60;;;2.00;;
11827;SDS011;5971;49.646;8.568;2023-07-30T08:09:31;3.63;;;1.70;;
11827;SDS011;5971;49.646;8.568;2023-07-30T08:12:32;3.10;;;2.20;;
11827;SDS011;5971;49.646;8.568;2023-07-30T08:15:34;3.72;;;2.00;;
11827;SDS011;5971;49.646;8.568;2023-07-30T08:18:35;2.75;;;1.63;;
11827;SDS011;5971;49.646;8.568;2023-07-30T08:21:37;2.88;;;1.42;;
11827;SDS011;5971;49.646;8.568;2023-07-30T08:24:39;3.33;;;1.80;;
11827;SDS011;5971;49.646;8.568;2023-07-30T08:27:40;3.83;;;1.80;;
11827;SDS011;5971;49.646;8.568;2023-07-30T08:30:41;3.05;;;1.65;;
11827;SDS011;5971;49.646;8.568;2023-07-30T08:33:43;2.60;;;1.63;;
11827;SDS011;5971;49.646;8.568;2023-07-30T08:36:44;3.42;;;2.17;;
11827;SDS011;5971;49.646;8.568;2023-07-30T08:39:46;2.78;;;1.67;;
11827;SDS011;5971;49.646;8.568;2023-07-30T08:42:50;5.05;;;1.70;;
11827;SDS011;5971;49.646;8.568;2023-07-30T08:45:52;3.25;;;1.73;;
11827;SDS011;5971;49.646;8.568;2023-07-30T08:48:54;3.15;;;1.52;;
11827;SDS011;5971;49.646;8.568;2023-07-30T08:51:57;3.10;;;1.85;;
11827;SDS011;5971;49.646;8.568;2023-07-30T08:54:58;3.95;;;1.48;;
11827;SDS011;5971;49.646;8.568;2023-07-30T08:58:02;2.70;;;1.70;;
11827;SDS011;5971;49.646;8.568;2023-07-30T09:01:07;2.88;;;1.73;;
11827;SDS011;5971;49.646;8.568;2023-07-30T09:04:09;4.30;;;1.95;;
11827;SDS011;5971;49.646;8.568;2023-07-30T09:07:11;2.38;;;1.50;;
11827;SDS011;5971;49.646;8.568;2023-07-30T09:10:12;2.78;;;1.67;;
11827;SDS011;5971;49.646;8.568;2023-07-30T09:13:15;4.07;;;1.75;;
11827;SDS011;5971;49.646;8.568;2023-07-30T09:16:23;3.05;;;2.20;;
11827;SDS011;5971;49.646;8.568;2023-07-30T09:19:25;3.13;;;1.85;;
11827;SDS011;5971;49.646;8.568;2023-07-30T09:22:27;4.97;;;1.77;;
11827;SDS011;5971;49.646;8.568;2023-07-30T09:25:29;3.25;;;1.77;;
11827;SDS011;5971;49.646;8.568;2023-07-30T09:28:31;2.63;;;1.73;;
11827;SDS011;5971;49.646;8.568;2023-07-30T09:31:40;2.67;;;1.65;;
11827;SDS011;5971;49.646;8.568;2023-07-30T09:34:44;2.75;;;1.80;;
11827;SDS011;5971;49.646;8.568;2023-07-30T09:37:46;3.00;;;1.80;;
11827;SDS011;5971;49.646;8.568;2023-07-30T09:40:47;3.15;;;1.55;;
11827;SDS011;5971;49.646;8.568;2023-07-30T09:43:57;3.25;;;1.58;;
11827;SDS011;5971;49.646;8.568;2023-07-30T09:47:00;2.20;;;0.73;;
11827;SDS011;5971;49.646;8.568;2023-07-30T09:50:06;2.35;;;0.70;;
11827;SDS011;5971;49.646;8.568;2023-07-30T09:53:08;1.42;;;0.80;;
11827;SDS011;5971;49.646;8.568;2023-07-30T09:56:10;2.00;;;0.75;;
11827;SDS011;5971;49.646;8.568;2023-07-30T09:59:11;2.25;;;0.90;;
11827;SDS011;5971;49.646;8.568;2023-07-30T10:02:13;8.10;;;1.25;;
11827;SDS011;5971;49.646;8.568;2023-07-30T10:05:23;1.88;;;0.80;;
11827;SDS011;5971;49.646;8.568;2023-07-30T10:08:26;2.13;;;1.00;;
11827;SDS011;5971;49.646;8.568;2023-07-30T10:11:27;1.55;;;0.82;;
11827;SDS011;5971;49.646;8.568;2023-07-30T10:14:29;2.05;;;1.30;;
11827;SDS011;5971;49.646;8.568;2023-07-30T10:17:32;1.67;;;0.80;;
11827;SDS011;5971;49.646;8.568;2023-07-30T10:20:33;1.63;;;0.70;;
11827;SDS011;5971;49.646;8.568;2023-07-30T10:23:35;1.70;;;1.20;;
11827;SDS011;5971;49.646;8.568;2023-07-30T10:26:37;1.40;;;0.90;;
11827;SDS011;5971;49.646;8.568;2023-07-30T10:29:39;1.98;;;1.30;;
11827;SDS011;5971;49.646;8.568;2023-07-30T10:32:57;1.90;;;1.42;;
11827;SDS011;5971;49.646;8.568;2023-07-30T10:35:59;1.33;;;0.80;;
11827;SDS011;5971;49.646;8.568;2023-07-30T10:39:16;1.65;;;1.17;;
11827;SDS011;5971;49.646;8.568;2023-07-30T10:42:18;1.63;;;1.17;;
11827;SDS011;5971;49.646;8.568;2023-07-30T10:45:24;1.70;;;1.15;;
11827;SDS011;5971;49.646;8.568;2023-07-30T10:48:33;2.92;;;0.80;;
11827;SDS011;5971;49.646;8.568;2023-07-30T10:51:35;1.30;;;1.00;;
11827;SDS011;5971;49.646;8.568;2023-07-30T10:54:36;2.00;;;0.93;;
11827;SDS011;5971;49.646;8.568;2023-07-30T10:57:40;1.55;;;0.75;;
11827;SDS011;5971;49.646;8.568;2023-07-30T11:00:51;2.47;;;1.15;;
11827;SDS011;5971;49.646;8.568;2023-07-30T11:03:53;2.38;;;1.40;;
11827;SDS011;5971;49.646;8.568;2023-07-30T11:06:54;3.47;;;1.33;;
11827;SDS011;5971;49.646;8.568;2023-07-30T11:09:59;1.67;;;0.85;;
11827;SDS011;5971;49.646;8.568;2023-07-30T11:13:04;1.80;;;0.90;;
11827;SDS011;5971;49.646;8.568;2023-07-30T11:16:05;1.92;;;0.98;;
11827;SDS011;5971;49.646;8.568;2023-07-30T11:19:08;1.85;;;0.95;;
11827;SDS011;5971;49.646;8.568;2023-07-30T11:22:11;3.60;;;1.40;;
11827;SDS011;5971;49.646;8.568;2023-07-30T11:25:18;3.25;;;1.88;;
11827;SDS011;5971;49.646;8.568;2023-07-30T11:28:33;2.17;;;1.00;;
11827;SDS011;5971;49.646;8.568;2023-07-30T11:31:38;2.85;;;1.10;;
11827;SDS011;5971;49.646;8.568;2023-07-30T11:34:40;3.53;;;1.30;;
11827;SDS011;5971;49.646;8.568;2023-07-30T11:37:42;1.95;;;1.20;;
11827;SDS011;5971;49.646;8.568;2023-07-30T11:40:44;3.65;;;1.27;;
11827;SDS011;5971;49.646;8.568;2023-07-30T11:43:45;2.65;;;1.10;;
11827;SDS011;5971;49.646;8.568;2023-07-30T11:46:54;2.55;;;0.90;;
11827;SDS011;5971;49.646;8.568;2023-07-30T11:49:56;3.88;;;1.13;;
11827;SDS011;5971;49.646;8.568;2023-07-30T11:52:58;1.75;;;1.10;;
11827;SDS011;5971;49.646;8.568;2023-07-30T11:55:59;2.88;;;1.40;;
11827;SDS011;5971;49.646;8.568;2023-07-30T11:59:02;2.20;;;0.90;;
11827;SDS011;5971;49.646;8.568;2023-07-30T12:02:04;1.85;;;0.85;;
11827;SDS011;5971;49.646;8.568;2023-07-30T12:05:06;3.65;;;1.33;;
11827;SDS011;5971;49.646;8.568;2023-07-30T12:08:13;3.58;;;1.83;;
11827;SDS011;5971;49.646;8.568;2023-07-30T12:11:15;3.83;;;1.30;;
11827;SDS011;5971;49.646;8.568;2023-07-30T12:14:18;2.08;;;1.05;;
11827;SDS011;5971;49.646;8.568;2023-07-30T12:17:20;2.80;;;1.23;;
11827;SDS011;5971;49.646;8.568;2023-07-30T12:20:26;2.05;;;0.90;;
11827;SDS011;5971;49.646;8.568;2023-07-30T12:23:28;2.80;;;1.20;;
11827;SDS011;5971;49.646;8.568;2023-07-30T12:26:29;3.47;;;1.73;;
11827;SDS011;5971;49.646;8.568;2023-07-30T12:29:31;2.22;;;1.00;;
11827;SDS011;5971;49.646;8.568;2023-07-30T12:32:33;3.30;;;1.45;;
11827;SDS011;5971;49.646;8.568;2023-07-30T12:35:34;2.60;;;1.60;;
11827;SDS011;5971;49.646;8.568;2023-07-30T12:38:35;3.45;;;2.20;;
11827;SDS011;5971;49.646;8.568;2023-07-30T12:41:37;3.80;;;1.40;;
11827;SDS011;5971;49.646;8.568;2023-07-30T12:44:38;1.95;;;1.10;;
11827;SDS011;5971;49.646;8.568;2023-07-30T12:47:40;3.50;;;1.15;;
11827;SDS011;5971;49.646;8.568;2023-07-30T12:50:42;3.63;;;1.40;;
11827;SDS011;5971;49.646;8.568;2023-07-30T12:53:43;2.70;;;1.13;;
11827;SDS011;5971;49.646;8.568;2023-07-30T12:56:45;2.90;;;1.58;;
11827;SDS011;5971;49.646;8.568;2023-07-30T12:59:46;2.40;;;1.13;;
11827;SDS011;5971;49.646;8.568;2023-07-30T13:02:48;3.35;;;1.10;;
11827;SDS011;5971;49.646;8.568;2023-07-30T13:05:49;3.38;;;1.50;;
11827;SDS011;5971;49.646;8.568;2023-07-30T13:08:51;3.05;;;1.30;;
11827;SDS011;5971;49.646;8.568;2023-07-30T13:11:53;3.78;;;1.83;;
11827;SDS011;5971;49.646;8.568;2023-07-30T13:14:55;4.28;;;2.05;;
11827;SDS011;5971;49.646;8.568;2023-07-30T13:17:56;3.67;;;1.83;;
11827;SDS011;5971;49.646;8.568;2023-07-30T13:20:57;2.75;;;1.40;;
11827;SDS011;5971;49.646;8.568;2023-07-30T13:23:59;4.20;;;1.63;;
11827;SDS011;5971;49.646;8.568;2023-07-30T13:27:00;4.30;;;1.67;;
11827;SDS011;5971;49.646;8.568;2023-07-30T13:30:02;3.88;;;1.25;;
11827;SDS011;5971;49.646;8.568;2023-07-30T13:33:03;3.60;;;1.10;;
11827;SDS011;5971;49.646;8.568;2023-07-30T13:36:05;2.80;;;1.70;;
11827;SDS011;5971;49.646;8.568;2023-07-30T13:39:07;3.33;;;1.45;;
11827;SDS011;5971;49.646;8.568;2023-07-30T13:42:08;3.25;;;1.20;;
11827;SDS011;5971;49.646;8.568;2023-07-30T13:45:09;2.97;;;1.23;;
11827;SDS011;5971;49.646;8.568;2023-07-30T13:48:11;2.05;;;1.20;;
11827;SDS011;5971;49.646;8.568;2023-07-30T13:51:12;3.85;;;1.40;;
11827;SDS011;5971;49.646;8.568;2023-07-30T13:54:14;3.17;;;1.40;;
11827;SDS011;5971;49.646;8.568;2023-07-30T13:57:22;2.67;;;1.38;;
11827;SDS011;5971;49.646;8.568;2023-07-30T14:00:25;2.80;;;1.20;;
11827;SDS011;5971;49.646;8.568;2023-07-30T14:03:26;4.88;;;1.60;;
11827;SDS011;5971;49.646;8.568;2023-07-30T14:06:28;3.03;;;1.30;;
11827;SDS011;5971;49.646;8.568;2023-07-30T14:09:30;3.80;;;1.20;;
11827;SDS011;5971;49.646;8.568;2023-07-30T14:12:34;3.22;;;1.20;;
11827;SDS011;5971;49.646;8.568;2023-07-30T14:15:36;4.95;;;1.40;;
11827;SDS011;5971;49.646;8.568;2023-07-30T14:18:37;2.63;;;1.10;;
11827;SDS011;5971;49.646;8.568;2023-07-30T14:21:40;4.30;;;1.30;;
11827;SDS011;5971;49.646;8.568;2023-07-30T14:24:42;2.22;;;1.02;;
11827;SDS011;5971;49.646;8.568;2023-07-30T14:27:45;1.98;;;1.00;;
11827;SDS011;5971;49.646;8.568;2023-07-30T14:30:47;3.88;;;1.20;;
11827;SDS011;5971;49.646;8.568;2023-07-30T14:33:48;3.15;;;1.13;;
11827;SDS011;5971;49.646;8.568;2023-07-30T14:36:50;3.03;;;1.20;;
11827;SDS011;5971;49.646;8.568;2023-07-30T14:39:51;2.92;;;1.10;;
11827;SDS011;5971;49.646;8.568;2023-07-30T14:42:53;3.28;;;1.70;;
11827;SDS011;5971;49.646;8.568;2023-07-30T14:45:54;4.40;;;1.60;;
11827;SDS011;5971;49.646;8.568;2023-07-30T14:48:56;3.13;;;1.20;;
11827;SDS011;5971;49.646;8.568;2023-07-30T14:51:57;3.60;;;1.10;;
11827;SDS011;5971;49.646;8.568;2023-07-30T14:54:59;3.30;;;1.23;;
11827;SDS011;5971;49.646;8.568;2023-07-30T14:58:00;3.42;;;1.60;;
11827;SDS011;5971;49.646;8.568;2023-07-30T15:01:04;3.20;;;1.55;;
11827;SDS011;5971;49.646;8.568;2023-07-30T15:04:06;2.95;;;1.30;;
11827;SDS011;5971;49.646;8.568;2023-07-30T15:07:10;3.80;;;1.60;;
11827;SDS011;5971;49.646;8.568;2023-07-30T15:10:11;3.15;;;1.77;;
11827;SDS011;5971;49.646;8.568;2023-07-30T15:13:13;2.63;;;1.10;;
11827;SDS011;5971;49.646;8.568;2023-07-30T15:16:14;3.42;;;1.20;;
11827;SDS011;5971;49.646;8.568;2023-07-30T15:19:16;2.85;;;1.20;;
11827;SDS011;5971;49.646;8.568;2023-07-30T15:22:17;2.72;;;1.30;;
11827;SDS011;5971;49.646;8.568;2023-07-30T15:25:18;3.13;;;1.70;;
11827;SDS011;5971;49.646;8.568;2023-07-30T15:28:20;3.45;;;1.40;;
11827;SDS011;5971;49.646;8.568;2023-07-30T15:31:21;3.67;;;1.20;;
11827;SDS011;5971;49.646;8.568;2023-07-30T15:34:23;3.28;;;1.23;;
11827;SDS011;5971;49.646;8.568;2023-07-30T15:37:28;2.85;;;1.27;;
11827;SDS011;5971;49.646;8.568;2023-07-30T15:40:29;3.70;;;1.38;;
11827;SDS011;5971;49.646;8.568;2023-07-30T15:43:30;4.78;;;1.65;;
11827;SDS011;5971;49.646;8.568;2023-07-30T15:46:32;2.63;;;1.05;;
11827;SDS011;5971;49.646;8.568;2023-07-30T15:49:34;2.55;;;1.13;;
11827;SDS011;5971;49.646;8.568;2023-07-30T15:52:36;3.03;;;1.25;;
11827;SDS011;5971;49.646;8.568;2023-07-30T15:55:37;3.10;;;1.40;;
11827;SDS011;5971;49.646;8.568;2023-07-30T15:58:38;2.63;;;1.02;;
11827;SDS011;5971;49.646;8.568;2023-07-30T16:01:40;2.38;;;1.00;;
11827;SDS011;5971;49.646;8.568;2023-07-30T16:04:41;2.28;;;0.93;;
11827;SDS011;5971;49.646;8.568;2023-07-30T16:07:43;3.92;;;1.33;;
11827;SDS011;5971;49.646;8.568;2023-07-30T16:10:44;2.90;;;1.55;;
11827;SDS011;5971;49.646;8.568;2023-07-30T16:13:46;3.05;;;1.20;;
11827;SDS011;5971;49.646;8.568;2023-07-30T16:16:49;3.42;;;1.95;;
11827;SDS011;5971;49.646;8.568;2023-07-30T16:19:50;2.83;;;1.40;;
11827;SDS011;5971;49.646;8.568;2023-07-30T16:22:52;2.15;;;0.98;;
11827;SDS011;5971;49.646;8.568;2023-07-30T16:25:53;3.17;;;1.10;;
11827;SDS011;5971;49.646;8.568;2023-07-30T16:28:55;3.40;;;1.58;;
11827;SDS011;5971;49.646;8.568;2023-07-30T16:31:56;2.70;;;1.40;;
11827;SDS011;5971;49.646;8.568;2023-07-30T16:34:57;3.55;;;1.13;;
11827;SDS011;5971;49.646;8.568;2023-07-30T16:37:59;3.30;;;1.10;;
11827;SDS011;5971;49.646;8.568;2023-07-30T16:41:00;2.90;;;1.10;;
11827;SDS011;5971;49.646;8.568;2023-07-30T16:44:02;3.78;;;1.52;;
11827;SDS011;5971;49.646;8.568;2023-07-30T16:47:03;3.70;;;1.38;;
11827;SDS011;5971;49.646;8.568;2023-07-30T16:50:05;2.55;;;1.25;;
11827;SDS011;5971;49.646;8.568;2023-07-30T16:53:06;3.80;;;1.27;;
11827;SDS011;5971;49.646;8.568;2023-07-30T16:56:08;5.15;;;1.27;;
11827;SDS011;5971;49.646;8.568;2023-07-30T16:59:10;3.70;;;1.13;;
11827;SDS011;5971;49.646;8.568;2023-07-30T17:02:11;3.72;;;1.70;;
11827;SDS011;5971;49.646;8.568;2023-07-30T17:05:12;3.72;;;1.50;;
11827;SDS011;5971;49.646;8.568;2023-07-30T17:08:14;2.53;;;1.13;;
11827;SDS011;5971;49.646;8.568;2023-07-30T17:11:15;2.90;;;0.88;;
11827;SDS011;5971;49.646;8.568;2023-07-30T17:14:16;3.58;;;1.48;;
11827;SDS011;5971;49.646;8.568;2023-07-30T17:17:18;3.53;;;1.23;;
11827;SDS011;5971;49.646;8.568;2023-07-30T17:20:19;4.15;;;1.10;;
11827;SDS011;5971;49.646;8.568;2023-07-30T17:23:20;3.25;;;1.20;;
11827;SDS011;5971;49.646;8.568;2023-07-30T17:26:22;2.83;;;1.20;;
11827;SDS011;5971;49.646;8.568;2023-07-30T17:29:23;2.92;;;0.90;;
11827;SDS011;5971;49.646;8.568;2023-07-30T17:32:25;3.63;;;1.50;;
11827;SDS011;5971;49.646;8.568;2023-07-30T17:35:26;3.30;;;0.98;;
11827;SDS011;5971;49.646;8.568;2023-07-30T17:38:28;3.50;;;1.10;;
11827;SDS011;5971;49.646;8.568;2023-07-30T17:41:30;3.85;;;1.10;;
11827;SDS011;5971;49.646;8.568;2023-07-30T17:44:31;8.27;;;1.92;;
11827;SDS011;5971;49.646;8.568;2023-07-30T17:47:33;2.55;;;1.05;;
11827;SDS011;5971;49.646;8.568;2023-07-30T17:50:34;3.08;;;1.10;;
11827;SDS011;5971;49.646;8.568;2023-07-30T17:53:36;3.85;;;1.48;;
11827;SDS011;5971;49.646;8.568;2023-07-30T17:56:37;3.55;;;1.30;;
11827;SDS011;5971;49.646;8.568;2023-07-30T17:59:39;3.95;;;1.30;;
11827;SDS011;5971;49.646;8.568;2023-07-30T18:02:41;2.92;;;1.20;;
11827;SDS011;5971;49.646;8.568;2023-07-30T18:05:45;2.78;;;1.30;;
11827;SDS011;5971;49.646;8.568;2023-07-30T18:08:49;2.90;;;1.20;;
11827;SDS011;5971;49.646;8.568;2023-07-30T18:11:50;3.35;;;1.30;;
11827;SDS011;5971;49.646;8.568;2023-07-30T18:14:55;3.10;;;1.30;;
11827;SDS011;5971;49.646;8.568;2023-07-30T18:17:56;3.75;;;1.55;;
11827;SDS011;5971;49.646;8.568;2023-07-30T18:20:58;3.38;;;1.70;;
11827;SDS011;5971;49.646;8.568;2023-07-30T18:23:59;2.55;;;1.20;;
11827;SDS011;5971;49.646;8.568;2023-07-30T18:27:01;4.63;;;1.33;;
11827;SDS011;5971;49.646;8.568;2023-07-30T18:30:05;4.85;;;1.42;;
11827;SDS011;5971;49.646;8.568;2023-07-30T18:33:07;2.83;;;1.23;;